Аэропорт: Ханты-Мансийск. Ханты-Мансийск

ICAO: USHH

METAR:
2022-06-26 11:30:00
USHH 261130Z 03002MPS 9999 SCT028 16/09 Q0996 R24/010060 NOSIG
METAR:
2022-06-26 07:38:00
TAF USHH 260738Z 2609/2709 36003G12MPS 9999 BKN016 TEMPO 2609/2618 2100 -TSRA SCT005 BKN016CB BECMG 2615/2616 32005G14MPS TEMPO 2618/2703 5000 -SHRA BR SCT002 BKN010CB TEMPO 2703/2709 5000 -SHRA FEW003 BKN015CB